KBKF

Buckley AFB Airport

Aurora, Colorado, USA
METAR KBKF 162158Z 09006KT 10SM CLR 16/M13 A3022 RMK AO2A SLP214 T01611134
Observed Flight Rules
Dec-16 @ 21:58 UTC (60 minutes ago) Visual Flight Rules
Wind Visibility Clouds
90° at 6 knots 10 miles
  • Clear skies
Temperatures Readings
Current 16°C / 61°F
Dewpoint -13°C / 9°F
Humidity 12%
Altimeter 30.22" Hg
Pressure 1021.4 hPa
Elevation 1726
METAR KBKF 162158Z 09006KT 10SM CLR 16/M13 A3022 RMK AO2A SLP214 T01611134
Observed Flight Rules
Dec-16 @ 21:58 UTC
(60 minutes ago)
VFR
Wind Visibility
90° at 6 knots 10 miles
Clouds
  • Clear skies
Temperature Dewpoint
16°C / 61°F -13°C / 9°F
Humidity Altimeter Pressure
12% 30.22" Hg 1021.4 hPa